createdAt,value
2023-04-25T00:01:10.462Z,13.10
2023-04-25T00:03:39.208Z,11.90
2023-04-25T00:06:07.489Z,12.63
2023-04-25T00:08:34.615Z,11.57
2023-04-25T00:11:02.250Z,12.48
2023-04-25T00:13:29.591Z,11.10
2023-04-25T00:15:57.449Z,11.90
2023-04-25T00:18:24.605Z,12.00
2023-04-25T00:20:51.656Z,13.38
2023-04-25T00:23:18.991Z,12.75
2023-04-25T00:25:46.666Z,13.25
2023-04-25T00:28:13.885Z,12.73
2023-04-25T00:30:41.232Z,11.93
2023-04-25T00:33:08.815Z,12.15
2023-04-25T00:35:36.013Z,12.63
2023-04-25T00:38:03.104Z,12.82
2023-04-25T00:40:30.410Z,11.77
2023-04-25T00:42:57.424Z,10.93
2023-04-25T00:45:24.487Z,10.85
2023-04-25T00:47:51.804Z,10.50
2023-04-25T00:50:18.926Z,10.50
2023-04-25T00:52:46.200Z,9.88
2023-04-25T00:55:13.500Z,10.10
2023-04-25T00:57:40.927Z,10.30
2023-04-25T01:00:08.373Z,10.07
2023-04-25T01:02:36.582Z,10.40
2023-04-25T01:05:04.339Z,10.05
2023-04-25T01:07:31.536Z,10.23
2023-04-25T01:09:58.633Z,9.43
2023-04-25T01:12:25.705Z,10.25
2023-04-25T01:14:52.844Z,10.05
2023-04-25T01:17:20.636Z,9.90
2023-04-25T01:19:49.781Z,9.75
2023-04-25T01:22:17.835Z,8.85
2023-04-25T01:24:45.124Z,8.85
2023-04-25T01:27:12.176Z,8.00
2023-04-25T01:29:39.215Z,8.15
2023-04-25T01:32:06.515Z,9.73
2023-04-25T01:34:33.649Z,9.82
2023-04-25T01:37:00.993Z,8.65
2023-04-25T01:39:28.017Z,8.00
2023-04-25T01:41:56.674Z,6.80
2023-04-25T01:44:24.573Z,7.13
2023-04-25T01:46:51.604Z,5.90
2023-04-25T01:49:18.697Z,5.50
2023-04-25T01:51:45.834Z,5.28
2023-04-25T01:54:12.884Z,4.97
2023-04-25T01:56:40.002Z,4.95
2023-04-25T01:59:07.118Z,4.90
2023-04-25T02:01:34.423Z,4.80
2023-04-25T02:04:01.843Z,4.60
2023-04-25T02:06:29.217Z,4.88
2023-04-25T02:08:56.288Z,4.78
2023-04-25T02:11:23.397Z,4.53
2023-04-25T02:13:50.670Z,5.05
2023-04-25T02:16:18.000Z,4.43
2023-04-25T02:18:45.857Z,4.43
2023-04-25T02:21:12.948Z,5.25
2023-04-25T02:23:40.003Z,4.20
2023-04-25T02:26:07.192Z,4.28
2023-04-25T02:28:34.270Z,4.13
2023-04-25T02:31:01.418Z,4.30
2023-04-25T02:33:28.534Z,4.20
2023-04-25T02:35:56.024Z,4.60
2023-04-25T02:38:23.099Z,4.28
2023-04-25T02:40:50.192Z,4.78
2023-04-25T02:43:17.385Z,4.63
2023-04-25T02:45:44.438Z,5.03
2023-04-25T02:48:11.522Z,4.97
2023-04-25T02:50:38.611Z,4.45
2023-04-25T02:53:05.631Z,4.70
2023-04-25T02:55:32.645Z,4.85
2023-04-25T02:57:59.714Z,4.75
2023-04-25T03:00:26.967Z,5.25
2023-04-25T03:02:54.210Z,5.22
2023-04-25T03:05:21.343Z,5.78
2023-04-25T03:07:48.409Z,4.90
2023-04-25T03:10:15.484Z,5.28
2023-04-25T03:12:42.586Z,5.63
2023-04-25T03:15:09.812Z,4.95
2023-04-25T03:17:36.965Z,5.30
2023-04-25T03:20:05.060Z,5.22
2023-04-25T03:22:32.100Z,5.80
2023-04-25T03:24:59.157Z,5.35
2023-04-25T03:27:26.212Z,5.38
2023-04-25T03:29:53.263Z,6.30
2023-04-25T03:32:20.622Z,5.45
2023-04-25T03:34:47.740Z,5.40
2023-04-25T03:37:14.802Z,5.15
2023-04-25T03:39:41.856Z,5.82
2023-04-25T03:42:08.884Z,5.82
2023-04-25T03:44:35.951Z,5.30
2023-04-25T03:47:02.956Z,5.53
2023-04-25T03:49:30.297Z,5.88
2023-04-25T03:51:57.367Z,5.07
2023-04-25T03:54:24.496Z,5.88
2023-04-25T03:56:51.495Z,5.85
2023-04-25T03:59:18.568Z,4.95
2023-04-25T04:01:45.688Z,5.00
2023-04-25T04:04:12.970Z,5.03
2023-04-25T04:06:40.866Z,4.97
2023-04-25T04:09:11.768Z,3.92
2023-04-25T04:11:39.430Z,4.90
2023-04-25T04:14:06.927Z,5.22
2023-04-25T04:16:34.641Z,4.35
2023-04-25T04:19:01.833Z,4.43
2023-04-25T04:21:28.900Z,5.00
2023-04-25T04:23:55.949Z,4.63
2023-04-25T04:26:26.998Z,4.13
2023-04-25T04:28:55.292Z,3.90
2023-04-25T04:31:23.011Z,4.05
2023-04-25T04:33:50.693Z,4.38
2023-04-25T04:36:20.905Z,4.20
2023-04-25T04:38:48.019Z,4.05
2023-04-25T04:41:15.180Z,4.15
2023-04-25T04:43:42.790Z,3.95
2023-04-25T04:46:11.283Z,10.73
2023-04-25T04:48:41.074Z,4.88
2023-04-25T04:51:08.219Z,4.27
2023-04-25T04:53:35.404Z,4.70
2023-04-25T04:56:02.489Z,4.50
2023-04-25T04:58:30.826Z,4.63
2023-04-25T05:00:57.988Z,4.65
2023-04-25T05:03:25.208Z,4.38
2023-04-25T05:05:52.357Z,4.32
2023-04-25T05:08:19.473Z,4.38
2023-04-25T05:10:46.530Z,4.43
2023-04-25T05:13:13.554Z,4.38
2023-04-25T05:15:40.704Z,5.03
2023-04-25T05:18:07.870Z,5.38
2023-04-25T05:20:35.013Z,5.15
2023-04-25T05:23:02.124Z,5.45
2023-04-25T05:25:29.221Z,5.03
2023-04-25T05:27:57.653Z,4.47
2023-04-25T05:30:24.702Z,4.32
2023-04-25T05:32:51.793Z,4.63
2023-04-25T05:35:19.026Z,4.25
2023-04-25T05:37:46.193Z,4.00
2023-04-25T05:40:13.622Z,3.78
2023-04-25T05:42:40.747Z,4.15
2023-04-25T05:45:07.935Z,4.30
2023-04-25T05:47:35.048Z,4.00
2023-04-25T05:50:02.215Z,4.18
2023-04-25T05:52:29.340Z,4.22
2023-04-25T05:54:56.381Z,4.18
2023-04-25T05:57:26.888Z,4.45
2023-04-25T05:59:54.092Z,4.50
2023-04-25T06:02:22.289Z,4.20
2023-04-25T06:04:52.587Z,4.40
2023-04-25T06:07:20.913Z,4.35
2023-04-25T06:09:48.315Z,3.90
2023-04-25T06:12:15.455Z,4.03
2023-04-25T06:14:42.551Z,4.05
2023-04-25T06:17:09.607Z,4.47
2023-04-25T06:19:37.165Z,4.18
2023-04-25T06:22:04.316Z,4.13
2023-04-25T06:24:31.428Z,4.05
2023-04-25T06:26:58.791Z,4.07
2023-04-25T06:29:25.832Z,4.22
2023-04-25T06:31:53.191Z,4.68
2023-04-25T06:34:20.706Z,3.97
2023-04-25T06:36:47.852Z,4.32
2023-04-25T06:39:14.916Z,4.05
2023-04-25T06:41:42.008Z,4.45
2023-04-25T06:44:09.086Z,4.85
2023-04-25T06:46:37.306Z,5.18
2023-04-25T06:49:04.387Z,4.20
2023-04-25T06:51:31.700Z,4.47
2023-04-25T06:53:58.946Z,4.20
2023-04-25T06:56:26.088Z,4.32
2023-04-25T06:58:53.488Z,4.25
2023-04-25T07:01:20.914Z,4.45
2023-04-25T07:03:48.242Z,5.00
2023-04-25T07:06:15.583Z,4.68
2023-04-25T07:08:42.638Z,5.22
2023-04-25T07:11:09.702Z,5.35
2023-04-25T07:13:37.423Z,4.40
2023-04-25T07:16:04.794Z,4.68
2023-04-25T07:18:31.873Z,4.70
2023-04-25T07:20:58.919Z,4.65
2023-04-25T07:23:25.958Z,4.93
2023-04-25T07:25:53.018Z,4.28
2023-04-25T07:28:20.149Z,4.60
2023-04-25T07:30:47.300Z,4.53
2023-04-25T07:33:14.380Z,4.80
2023-04-25T07:35:41.749Z,4.85
2023-04-25T07:38:08.909Z,4.68
2023-04-25T07:40:36.557Z,4.80
2023-04-25T07:43:03.774Z,4.85
2023-04-25T07:45:31.044Z,4.60
2023-04-25T07:47:58.160Z,4.63
2023-04-25T07:50:25.381Z,4.50
2023-04-25T07:52:52.589Z,4.35
2023-04-25T07:55:19.697Z,4.60
2023-04-25T07:57:46.811Z,4.28
2023-04-25T08:00:14.326Z,4.50
2023-04-25T08:02:41.691Z,4.20
2023-04-25T08:05:12.740Z,4.50
2023-04-25T08:07:40.077Z,3.50
2023-04-25T08:10:07.722Z,3.58
2023-04-25T08:12:34.819Z,4.22
2023-04-25T08:15:02.002Z,3.65
2023-04-25T08:17:29.096Z,3.78
2023-04-25T08:19:56.402Z,3.80
2023-04-25T08:22:23.460Z,3.95
2023-04-25T08:24:50.489Z,3.65
2023-04-25T08:27:17.507Z,4.03
2023-04-25T08:29:44.658Z,3.83
2023-04-25T08:32:11.703Z,3.95
2023-04-25T08:34:40.408Z,3.63
2023-04-25T08:37:07.479Z,3.70
2023-04-25T08:39:34.519Z,3.45
2023-04-25T08:42:03.002Z,3.38
2023-04-25T08:44:31.079Z,3.25
2023-04-25T08:46:58.252Z,2.92
2023-04-25T08:49:25.329Z,3.00
2023-04-25T08:51:52.524Z,3.22
2023-04-25T08:54:34.660Z,2.88
2023-04-25T08:57:03.212Z,2.60
2023-04-25T08:59:30.358Z,2.90
2023-04-25T09:01:57.440Z,2.10
2023-04-25T09:04:24.806Z,2.60
2023-04-25T09:06:51.901Z,2.88
2023-04-25T09:09:19.177Z,2.70
2023-04-25T09:11:46.234Z,2.70
2023-04-25T09:14:16.624Z,2.85
2023-04-25T09:17:00.556Z,2.38
2023-04-25T09:19:40.238Z,2.30
2023-04-25T09:22:08.897Z,1.58
2023-04-25T09:24:44.308Z,1.65
2023-04-25T09:27:11.878Z,1.75
2023-04-25T09:29:43.018Z,1.75
2023-04-25T09:32:17.623Z,2.13
2023-04-25T09:34:45.715Z,1.90
2023-04-25T09:37:12.961Z,2.42
2023-04-25T09:39:40.539Z,2.30
2023-04-25T09:42:07.660Z,1.63
2023-04-25T09:44:34.786Z,1.92
2023-04-25T09:47:02.949Z,1.58
2023-04-25T09:49:29.972Z,2.20
2023-04-25T09:51:57.968Z,2.20
2023-04-25T09:54:28.068Z,2.00
2023-04-25T09:56:55.335Z,2.38
2023-04-25T09:59:23.676Z,1.73
2023-04-25T10:01:53.895Z,2.00
2023-04-25T10:04:23.697Z,2.45
2023-04-25T10:06:54.467Z,1.88
2023-04-25T10:09:22.201Z,2.25
2023-04-25T10:11:49.281Z,1.50
2023-04-25T10:14:16.602Z,1.65
2023-04-25T10:16:44.041Z,1.88
2023-04-25T10:19:12.036Z,1.52
2023-04-25T10:21:46.720Z,1.90
2023-04-25T10:24:13.776Z,1.60
2023-04-25T10:26:40.866Z,1.20
2023-04-25T10:29:08.014Z,2.00
2023-04-25T10:31:35.850Z,1.80
2023-04-25T10:34:03.099Z,1.60
2023-04-25T10:36:32.865Z,1.80
2023-04-25T10:39:01.429Z,2.05
2023-04-25T10:41:29.850Z,2.05
2023-04-25T10:44:03.030Z,2.00
2023-04-25T10:46:33.165Z,1.80
2023-04-25T10:49:00.834Z,1.98
2023-04-25T10:51:54.257Z,1.92
2023-04-25T10:54:22.214Z,1.98
2023-04-25T10:56:50.584Z,1.88
2023-04-25T10:59:19.127Z,2.33
2023-04-25T11:01:47.091Z,1.40
2023-04-25T11:04:31.512Z,1.48
2023-04-25T11:07:37.560Z,1.65
2023-04-25T11:10:05.175Z,1.75
2023-04-25T11:12:32.950Z,1.88
2023-04-25T11:15:02.084Z,1.98
2023-04-25T11:17:29.654Z,1.88
2023-04-25T11:19:57.370Z,1.83
2023-04-25T11:22:24.520Z,2.20
2023-04-25T11:24:52.149Z,2.10
2023-04-25T11:27:19.296Z,2.20
2023-04-25T11:29:49.007Z,2.72
2023-04-25T11:32:18.086Z,1.77
2023-04-25T11:34:46.860Z,2.10
2023-04-25T11:37:14.379Z,1.92
2023-04-25T11:39:45.960Z,2.05
2023-04-25T11:42:13.507Z,2.30
2023-04-25T11:44:41.748Z,1.95
2023-04-25T11:47:09.010Z,2.00
2023-04-25T11:49:36.709Z,2.55
2023-04-25T11:52:03.976Z,2.38
2023-04-25T11:54:31.046Z,2.00
2023-04-25T11:56:58.262Z,2.50
2023-04-25T11:59:26.330Z,2.55
2023-04-25T12:01:53.729Z,2.72
2023-04-25T12:04:21.739Z,2.15
2023-04-25T12:06:49.740Z,2.17
2023-04-25T12:09:18.905Z,2.03
2023-04-25T12:11:49.645Z,2.28
2023-04-25T12:14:25.107Z,2.13
2023-04-25T12:16:52.796Z,2.17
2023-04-25T12:19:20.962Z,1.80
2023-04-25T12:24:19.925Z,2.30
2023-04-25T12:27:03.314Z,2.17
2023-04-25T12:29:34.888Z,2.80
2023-04-25T12:32:09.612Z,2.92
2023-04-25T12:34:37.057Z,2.40
2023-04-25T12:37:04.390Z,2.17
2023-04-25T12:39:31.476Z,2.30
2023-04-25T12:41:59.376Z,2.33
2023-04-25T12:44:26.711Z,2.35
2023-04-25T12:46:53.915Z,2.30
2023-04-25T12:49:20.995Z,2.03
2023-04-25T12:51:48.469Z,2.25
2023-04-25T12:54:15.879Z,2.85
2023-04-25T12:56:43.271Z,2.53
2023-04-25T12:59:10.469Z,2.15
2023-04-25T13:01:37.608Z,2.10
2023-04-25T13:04:05.113Z,2.58
2023-04-25T13:06:32.348Z,1.67
2023-04-25T13:08:59.455Z,1.75
2023-04-25T13:11:26.577Z,2.28
2023-04-25T13:13:54.007Z,1.92
2023-04-25T13:16:24.575Z,2.22
2023-04-25T13:18:51.722Z,2.53
2023-04-25T13:21:18.799Z,2.15
2023-04-25T13:23:47.576Z,1.90
2023-04-25T13:26:14.712Z,2.20
2023-04-25T13:28:43.610Z,1.70
2023-04-25T13:31:11.983Z,1.50
2023-04-25T13:33:39.097Z,2.17
2023-04-25T13:36:06.460Z,2.22
2023-04-25T13:38:33.756Z,2.28
2023-04-25T13:41:01.894Z,2.20
2023-04-25T13:43:29.048Z,2.20
2023-04-25T13:45:56.140Z,1.90
2023-04-25T13:48:23.647Z,1.90
2023-04-25T13:50:50.767Z,2.40
2023-04-25T13:53:17.805Z,1.92
2023-04-25T13:55:44.862Z,2.90
2023-04-25T13:58:12.379Z,2.47
2023-04-25T14:00:40.124Z,2.40
2023-04-25T14:03:10.481Z,2.50
2023-04-25T14:05:41.201Z,2.58
2023-04-25T14:08:09.087Z,3.10
2023-04-25T14:10:36.230Z,3.00
2023-04-25T14:13:04.406Z,2.30
2023-04-25T14:15:34.812Z,2.00
2023-04-25T14:18:02.324Z,1.80
2023-04-25T14:20:29.530Z,1.80
2023-04-25T14:22:58.082Z,2.15
2023-04-25T14:25:25.454Z,1.83
2023-04-25T14:27:52.627Z,1.90
2023-04-25T14:30:19.977Z,1.92
2023-04-25T14:32:47.189Z,1.70
2023-04-25T14:35:14.419Z,2.65
2023-04-25T14:37:41.499Z,2.60
2023-04-25T14:40:11.564Z,1.42
2023-04-25T14:42:38.955Z,1.90
2023-04-25T14:45:07.298Z,2.10
2023-04-25T14:47:34.594Z,1.85
2023-04-25T14:50:02.700Z,1.92
2023-04-25T14:52:30.027Z,2.00
2023-04-25T14:54:57.156Z,2.20
2023-04-25T14:57:24.416Z,2.63
2023-04-25T14:59:51.553Z,3.30
2023-04-25T15:02:18.652Z,2.30
2023-04-25T15:04:46.094Z,1.88
2023-04-25T15:07:13.209Z,1.83
2023-04-25T15:09:40.308Z,1.98
2023-04-25T15:12:07.437Z,1.73
2023-04-25T15:14:34.973Z,2.17
2023-04-25T15:17:02.398Z,1.98
2023-04-25T15:19:29.627Z,1.95
2023-04-25T15:21:56.767Z,2.05
2023-04-25T15:24:23.937Z,2.28
2023-04-25T15:26:51.481Z,2.00
2023-04-25T15:29:18.600Z,1.30
2023-04-25T15:31:45.987Z,3.67
2023-04-25T15:34:13.082Z,1.95
2023-04-25T15:36:40.342Z,1.80
2023-04-25T15:39:07.386Z,2.35
2023-04-25T15:41:34.592Z,1.67
2023-04-25T15:44:01.774Z,1.52
2023-04-25T15:46:31.174Z,1.52
2023-04-25T15:48:58.489Z,1.90
2023-04-25T15:51:25.506Z,1.80
2023-04-25T15:53:52.929Z,2.00
2023-04-25T15:56:20.400Z,2.17
2023-04-25T15:58:47.416Z,1.80
2023-04-25T16:01:15.040Z,1.77
2023-04-25T16:03:42.357Z,1.42
2023-04-25T16:06:09.523Z,2.00
2023-04-25T16:08:36.585Z,1.60
2023-04-25T16:11:03.723Z,1.75
2023-04-25T16:13:30.912Z,1.60
2023-04-25T16:15:58.135Z,1.75
2023-04-25T16:18:25.582Z,1.58
2023-04-25T16:20:52.677Z,1.73
2023-04-25T16:23:19.729Z,1.63
2023-04-25T16:25:46.818Z,1.80
2023-04-25T16:28:13.873Z,1.70
2023-04-25T16:30:41.466Z,1.42
2023-04-25T16:33:08.928Z,1.38
2023-04-25T16:35:36.020Z,1.88
2023-04-25T16:38:03.055Z,1.83
2023-04-25T16:40:30.230Z,1.90
2023-04-25T16:42:57.330Z,1.77
2023-04-25T16:45:24.537Z,1.95
2023-04-25T16:47:51.672Z,1.50
2023-04-25T16:50:19.166Z,1.58
2023-04-25T16:52:46.251Z,1.33
2023-04-25T16:55:13.316Z,1.15
2023-04-25T16:57:40.462Z,1.48
2023-04-25T17:00:13.536Z,1.67
2023-04-25T17:02:40.878Z,1.90
2023-04-25T17:05:08.752Z,1.80
2023-04-25T17:07:35.822Z,1.63
2023-04-25T17:10:03.606Z,2.00
2023-04-25T17:12:30.623Z,1.52
2023-04-25T17:14:57.736Z,1.80
2023-04-25T17:17:26.597Z,1.55
2023-04-25T17:19:53.693Z,1.33
2023-04-25T17:22:21.467Z,1.40
2023-04-25T17:24:48.619Z,1.92
2023-04-25T17:27:15.723Z,1.50
2023-04-25T17:29:42.914Z,8.30
2023-04-25T17:32:10.767Z,1.88
2023-04-25T17:34:39.977Z,1.20
2023-04-25T17:37:09.939Z,1.33
2023-04-25T17:39:37.493Z,1.45
2023-04-25T17:42:04.665Z,1.25
2023-04-25T17:44:31.985Z,1.55
2023-04-25T17:47:01.094Z,1.30
2023-04-25T17:49:28.127Z,1.75
2023-04-25T17:51:55.282Z,2.00
2023-04-25T17:54:22.684Z,1.30
2023-04-25T17:56:49.774Z,1.30
2023-04-25T17:59:17.388Z,1.20
2023-04-25T18:01:47.926Z,1.33
2023-04-25T18:04:15.188Z,1.40
2023-04-25T18:06:42.265Z,1.80
2023-04-25T18:09:23.238Z,1.50
2023-04-25T18:11:51.663Z,1.70
2023-04-25T18:14:20.249Z,1.70
2023-04-25T18:16:47.822Z,1.20
2023-04-25T18:19:24.052Z,1.13
2023-04-25T18:21:54.342Z,1.65
2023-04-25T18:24:22.055Z,1.20
2023-04-25T18:26:49.712Z,1.48
2023-04-25T18:29:29.348Z,1.80
2023-04-25T18:32:00.491Z,1.40
2023-04-25T18:34:27.817Z,2.67
2023-04-25T18:36:56.286Z,1.40
2023-04-25T18:39:27.100Z,1.83
2023-04-25T18:42:01.311Z,1.30
2023-04-25T18:44:33.732Z,1.30
2023-04-25T18:47:01.061Z,1.70
2023-04-25T18:49:28.257Z,1.30
2023-04-25T18:51:57.351Z,1.40
2023-04-25T18:54:24.446Z,1.10
2023-04-25T18:56:51.695Z,1.30
2023-04-25T18:59:18.739Z,1.27
2023-04-25T19:01:45.815Z,1.42
2023-04-25T19:04:13.177Z,1.40
2023-04-25T19:06:40.325Z,1.60
2023-04-25T19:09:08.155Z,1.70
2023-04-25T19:11:35.350Z,1.23
2023-04-25T19:14:02.725Z,1.25
2023-04-25T19:16:29.906Z,1.10
2023-04-25T19:18:57.001Z,1.30
2023-04-25T19:21:24.064Z,1.40
2023-04-25T19:23:54.093Z,1.40
2023-04-25T19:28:49.908Z,1.42
2023-04-25T19:31:17.024Z,1.45
2023-04-25T19:33:46.536Z,1.60
2023-04-25T19:36:13.660Z,1.38
2023-04-25T19:38:40.723Z,1.35
2023-04-25T19:41:07.742Z,1.20
2023-04-25T19:43:34.789Z,1.40
2023-04-25T19:46:01.885Z,1.58
2023-04-25T19:48:28.995Z,1.52
2023-04-25T19:50:56.018Z,1.40
2023-04-25T19:53:23.042Z,1.20
2023-04-25T19:55:50.068Z,1.90
2023-04-25T19:58:17.379Z,1.80
2023-04-25T20:00:44.405Z,1.27
2023-04-25T20:03:12.093Z,1.75
2023-04-25T20:05:39.226Z,1.52
2023-04-25T20:08:06.358Z,1.90
2023-04-25T20:10:33.415Z,1.70
2023-04-25T20:13:01.285Z,3.00
2023-04-25T20:15:28.405Z,2.33
2023-04-25T20:17:55.644Z,1.60
2023-04-25T20:20:22.926Z,2.42
2023-04-25T20:22:50.975Z,1.33
2023-04-25T20:25:17.972Z,1.55
2023-04-25T20:27:45.308Z,1.77
2023-04-25T20:30:12.830Z,2.90
2023-04-25T20:32:40.042Z,1.50
2023-04-25T20:35:08.709Z,1.80
2023-04-25T20:37:35.982Z,1.50
2023-04-25T20:40:05.052Z,1.70
2023-04-25T20:42:32.222Z,1.63
2023-04-25T20:44:59.342Z,1.42
2023-04-25T20:47:26.471Z,1.77
2023-04-25T20:49:53.534Z,1.83
2023-04-25T20:52:20.607Z,1.40
2023-04-25T20:54:50.508Z,2.08
2023-04-25T20:57:17.735Z,1.63
2023-04-25T20:59:44.898Z,1.48
2023-04-25T21:02:12.601Z,1.95
2023-04-25T21:04:39.799Z,1.70
2023-04-25T21:07:06.850Z,1.75
2023-04-25T21:09:33.949Z,1.70
2023-04-25T21:12:01.098Z,1.80
2023-04-25T21:14:28.141Z,1.77
2023-04-25T21:16:55.288Z,1.67
2023-04-25T21:19:22.319Z,1.20
2023-04-25T21:21:49.394Z,1.40
2023-04-25T21:24:16.612Z,1.45
2023-04-25T21:26:43.680Z,1.40
2023-04-25T21:29:10.913Z,1.40
2023-04-25T21:31:38.848Z,1.75
2023-04-25T21:34:07.228Z,1.50
2023-04-25T21:36:34.341Z,1.70
2023-04-25T21:39:01.419Z,1.58
2023-04-25T21:41:28.497Z,1.70
2023-04-25T21:43:55.843Z,1.30
2023-04-25T21:46:24.426Z,1.73
2023-04-25T21:48:51.968Z,1.40
2023-04-25T21:51:19.479Z,1.40
2023-04-25T21:53:46.660Z,1.65
2023-04-25T21:56:13.674Z,1.48
2023-04-25T21:58:40.782Z,1.80
2023-04-25T22:01:07.844Z,1.85
2023-04-25T22:03:35.465Z,1.83
2023-04-25T22:06:03.916Z,1.73
2023-04-25T22:08:31.042Z,1.83
2023-04-25T22:10:58.936Z,1.80
2023-04-25T22:13:28.357Z,1.77
2023-04-25T22:15:55.529Z,2.00
2023-04-25T22:18:22.685Z,1.92
2023-04-25T22:20:49.764Z,1.90
2023-04-25T22:23:17.238Z,2.00
2023-04-25T22:25:44.818Z,2.22
2023-04-25T22:28:12.980Z,2.13
2023-04-25T22:30:40.133Z,1.98
2023-04-25T22:33:07.341Z,2.00
2023-04-25T22:35:34.484Z,2.00
2023-04-25T22:38:01.661Z,2.10
2023-04-25T22:40:28.757Z,2.50
2023-04-25T22:42:55.753Z,2.30
2023-04-25T22:45:22.882Z,2.40
2023-04-25T22:47:50.145Z,2.65
2023-04-25T22:50:17.814Z,2.47
2023-04-25T22:52:44.903Z,2.92
2023-04-25T22:55:13.152Z,4.28
2023-04-25T22:57:40.464Z,2.92
2023-04-25T23:00:19.919Z,3.65
2023-04-25T23:02:47.503Z,3.73
2023-04-25T23:05:15.071Z,2.88
2023-04-25T23:07:42.384Z,2.80
2023-04-25T23:10:09.629Z,3.00
2023-04-25T23:12:36.677Z,2.67
2023-04-25T23:15:05.192Z,2.70
2023-04-25T23:17:32.243Z,2.60
2023-04-25T23:19:59.396Z,2.95
2023-04-25T23:22:26.532Z,2.50
2023-04-25T23:24:53.570Z,2.78
2023-04-25T23:27:20.769Z,2.85
2023-04-25T23:29:54.669Z,2.60
2023-04-25T23:32:22.309Z,2.50
2023-04-25T23:34:49.478Z,2.55
2023-04-25T23:37:16.572Z,2.85
2023-04-25T23:39:52.616Z,2.88
2023-04-25T23:42:19.757Z,2.40
2023-04-25T23:44:46.816Z,2.30
2023-04-25T23:47:17.380Z,2.83
2023-04-25T23:52:11.835Z,2.25
2023-04-25T23:54:38.882Z,2.30
2023-04-25T23:57:06.173Z,2.15
2023-04-25T23:59:33.303Z,2.35
